createdAt,value
2022-10-07T00:01:13.646Z,1.65
2022-10-07T00:03:43.167Z,1.33
2022-10-07T00:06:14.613Z,1.27
2022-10-07T00:08:44.571Z,1.33
2022-10-07T00:11:14.777Z,1.20
2022-10-07T00:13:44.731Z,1.20
2022-10-07T00:16:14.580Z,1.33
2022-10-07T00:18:44.929Z,1.10
2022-10-07T00:21:16.076Z,1.00
2022-10-07T00:23:45.841Z,1.27
2022-10-07T00:26:17.197Z,1.52
2022-10-07T00:28:45.623Z,1.40
2022-10-07T00:31:16.152Z,0.95
2022-10-07T00:33:46.251Z,1.23
2022-10-07T00:36:15.870Z,1.73
2022-10-07T00:38:45.535Z,1.35
2022-10-07T00:41:18.862Z,1.52
2022-10-07T00:43:47.052Z,1.15
2022-10-07T00:46:22.541Z,1.27
2022-10-07T00:48:51.930Z,1.43
2022-10-07T00:51:19.519Z,1.17
2022-10-07T00:53:51.366Z,1.13
2022-10-07T00:56:20.136Z,1.33
2022-10-07T00:58:49.642Z,1.30
2022-10-07T01:01:18.452Z,1.30
2022-10-07T01:03:48.326Z,1.23
2022-10-07T01:06:17.563Z,1.23
2022-10-07T01:08:47.446Z,1.45
2022-10-07T01:11:27.254Z,1.13
2022-10-07T01:14:07.299Z,1.00
2022-10-07T01:16:44.628Z,1.00
2022-10-07T01:19:33.747Z,1.42
2022-10-07T01:22:16.048Z,1.20
2022-10-07T01:24:50.607Z,1.33
2022-10-07T01:27:22.830Z,1.17
2022-10-07T01:29:56.148Z,0.82
2022-10-07T01:32:32.224Z,0.90
2022-10-07T01:35:02.638Z,0.90
2022-10-07T01:37:36.575Z,1.50
2022-10-07T01:40:11.072Z,0.90
2022-10-07T01:42:40.813Z,0.50
2022-10-07T01:45:12.493Z,0.90
2022-10-07T01:47:41.600Z,0.88
2022-10-07T01:50:13.503Z,0.70
2022-10-07T01:52:55.853Z,0.77
2022-10-07T01:55:38.778Z,0.73
2022-10-07T01:58:19.231Z,1.10
2022-10-07T02:00:52.923Z,0.90
2022-10-07T02:03:38.590Z,0.73
2022-10-07T02:06:18.116Z,0.90
2022-10-07T02:08:50.441Z,0.80
2022-10-07T02:11:21.644Z,1.10
2022-10-07T02:13:58.692Z,1.45
2022-10-07T02:16:30.142Z,1.10
2022-10-07T02:19:01.435Z,0.97
2022-10-07T02:21:32.982Z,0.90
2022-10-07T02:24:02.802Z,0.75
2022-10-07T02:26:35.533Z,0.68
2022-10-07T02:29:07.989Z,0.70
2022-10-07T02:31:38.634Z,0.67
2022-10-07T02:34:09.714Z,0.50
2022-10-07T02:36:41.422Z,0.80
2022-10-07T02:39:09.914Z,0.75
2022-10-07T02:41:45.588Z,2.70
2022-10-07T02:44:25.726Z,0.83
2022-10-07T02:46:58.095Z,0.80
2022-10-07T02:49:27.209Z,0.70
2022-10-07T02:51:59.536Z,1.70
2022-10-07T02:54:32.982Z,0.60
2022-10-07T02:57:02.699Z,0.70
2022-10-07T02:59:34.542Z,0.60
2022-10-07T03:02:04.948Z,1.00
2022-10-07T03:04:32.753Z,0.60
2022-10-07T03:07:01.189Z,0.70
2022-10-07T03:09:33.397Z,0.80
2022-10-07T03:12:01.375Z,0.75
2022-10-07T03:14:29.712Z,0.88
2022-10-07T03:16:58.787Z,0.75
2022-10-07T03:19:26.735Z,0.80
2022-10-07T03:21:54.989Z,0.80
2022-10-07T03:24:22.555Z,0.93
2022-10-07T03:26:50.422Z,1.20
2022-10-07T03:29:18.669Z,1.00
2022-10-07T03:31:46.325Z,1.20
2022-10-07T03:34:15.423Z,0.90
2022-10-07T03:36:45.404Z,1.38
2022-10-07T03:39:13.448Z,1.20
2022-10-07T03:41:42.323Z,0.82
2022-10-07T03:44:09.984Z,1.23
2022-10-07T03:46:37.861Z,1.20
2022-10-07T03:49:05.755Z,1.20
2022-10-07T03:51:36.098Z,1.27
2022-10-07T03:54:03.761Z,1.20
2022-10-07T03:56:32.012Z,1.42
2022-10-07T03:59:00.257Z,1.80
2022-10-07T04:01:31.465Z,1.30
2022-10-07T04:04:00.729Z,1.30
2022-10-07T04:06:29.820Z,1.40
2022-10-07T04:08:58.952Z,1.50
2022-10-07T04:11:26.677Z,1.30
2022-10-07T04:13:56.023Z,1.63
2022-10-07T04:16:24.128Z,1.70
2022-10-07T04:18:56.130Z,1.45
2022-10-07T04:21:25.895Z,1.55
2022-10-07T04:23:53.545Z,1.60
2022-10-07T04:26:23.069Z,1.42
2022-10-07T04:28:51.542Z,1.27
2022-10-07T04:31:19.239Z,1.73
2022-10-07T04:33:47.433Z,1.80
2022-10-07T04:36:15.202Z,1.60
2022-10-07T04:38:44.216Z,1.88
2022-10-07T04:41:12.283Z,1.92
2022-10-07T04:43:41.625Z,2.15
2022-10-07T04:46:14.137Z,2.40
2022-10-07T04:48:45.531Z,1.97
2022-10-07T04:51:13.890Z,1.98
2022-10-07T04:53:41.705Z,1.83
2022-10-07T04:56:11.188Z,1.95
2022-10-07T04:58:39.312Z,2.20
2022-10-07T05:01:11.183Z,1.60
2022-10-07T05:03:40.419Z,1.65
2022-10-07T05:06:09.312Z,1.80
2022-10-07T05:08:37.089Z,2.20
2022-10-07T05:11:04.988Z,1.67
2022-10-07T05:13:34.385Z,1.80
2022-10-07T05:16:04.816Z,2.28
2022-10-07T05:18:35.806Z,2.50
2022-10-07T05:21:06.167Z,2.67
2022-10-07T05:23:36.904Z,2.80
2022-10-07T05:26:08.178Z,2.83
2022-10-07T05:28:36.820Z,2.88
2022-10-07T05:31:08.803Z,3.65
2022-10-07T05:33:38.283Z,9.77
2022-10-07T05:36:07.914Z,13.82
2022-10-07T05:38:36.879Z,12.10
2022-10-07T05:41:07.711Z,9.70
2022-10-07T05:43:38.013Z,9.85
2022-10-07T05:46:07.747Z,7.32
2022-10-07T05:48:39.504Z,4.88
2022-10-07T05:51:09.319Z,3.50
2022-10-07T05:53:41.005Z,3.28
2022-10-07T05:56:10.359Z,3.30
2022-10-07T05:58:39.022Z,3.38
2022-10-07T06:01:13.117Z,3.10
2022-10-07T06:03:43.798Z,3.57
2022-10-07T06:06:11.571Z,4.90
2022-10-07T06:08:39.881Z,6.18
2022-10-07T06:11:25.759Z,6.38
2022-10-07T06:13:55.149Z,5.57
2022-10-07T06:16:23.417Z,6.60
2022-10-07T06:18:53.242Z,7.07
2022-10-07T06:21:23.710Z,4.82
2022-10-07T06:23:53.039Z,3.80
2022-10-07T06:26:21.744Z,2.95
2022-10-07T06:28:49.871Z,3.70
2022-10-07T06:31:22.245Z,4.20
2022-10-07T06:33:50.443Z,4.90
2022-10-07T06:36:20.639Z,8.45
2022-10-07T06:38:49.699Z,7.78
2022-10-07T06:41:18.012Z,4.70
2022-10-07T06:43:45.997Z,4.00
2022-10-07T06:46:16.397Z,4.13
2022-10-07T06:48:46.709Z,3.70
2022-10-07T06:51:16.631Z,5.82
2022-10-07T06:53:46.554Z,3.93
2022-10-07T06:56:15.283Z,4.70
2022-10-07T06:58:43.594Z,4.28
2022-10-07T07:01:12.321Z,3.08
2022-10-07T07:03:40.494Z,4.15
2022-10-07T07:06:09.247Z,5.27
2022-10-07T07:08:37.726Z,7.38
2022-10-07T07:11:28.842Z,5.00
2022-10-07T07:13:57.259Z,5.15
2022-10-07T07:16:25.451Z,5.55
2022-10-07T07:18:54.937Z,5.33
2022-10-07T07:21:24.511Z,4.70
2022-10-07T07:23:53.299Z,3.78
2022-10-07T07:26:23.515Z,4.07
2022-10-07T07:28:55.452Z,4.30
2022-10-07T07:31:23.737Z,5.87
2022-10-07T07:33:53.469Z,5.30
2022-10-07T07:36:23.870Z,4.78
2022-10-07T07:38:53.402Z,3.97
2022-10-07T07:41:25.984Z,5.80
2022-10-07T07:43:55.566Z,5.70
2022-10-07T07:46:25.883Z,5.60
2022-10-07T07:48:54.962Z,5.70
2022-10-07T07:51:22.909Z,14.73
2022-10-07T07:53:52.640Z,13.95
2022-10-07T07:56:24.647Z,17.03
2022-10-07T07:58:52.576Z,16.50
2022-10-07T08:01:20.610Z,15.75
2022-10-07T08:03:50.644Z,13.88
2022-10-07T08:06:20.749Z,13.27
2022-10-07T08:08:48.876Z,14.80
2022-10-07T08:11:18.739Z,13.90
2022-10-07T08:13:48.911Z,12.35
2022-10-07T08:16:18.580Z,12.32
2022-10-07T08:18:47.902Z,11.25
2022-10-07T08:21:19.362Z,8.73
2022-10-07T08:23:49.781Z,10.75
2022-10-07T08:26:17.513Z,9.57
2022-10-07T08:28:45.269Z,8.18
2022-10-07T08:31:16.091Z,7.13
2022-10-07T08:33:46.774Z,6.30
2022-10-07T08:36:16.173Z,5.95
2022-10-07T08:38:47.953Z,6.15
2022-10-07T08:41:25.907Z,5.57
2022-10-07T08:43:53.964Z,5.35
2022-10-07T08:46:27.698Z,5.30
2022-10-07T08:49:00.252Z,4.40
2022-10-07T08:51:33.067Z,4.43
2022-10-07T08:54:01.749Z,4.75
2022-10-07T08:56:30.751Z,4.38
2022-10-07T08:59:13.500Z,4.03
2022-10-07T09:01:58.529Z,4.38
2022-10-07T09:04:37.280Z,5.45
2022-10-07T09:07:12.146Z,5.10
2022-10-07T09:09:43.875Z,5.13
2022-10-07T09:12:23.360Z,4.10
2022-10-07T09:14:55.686Z,4.25
2022-10-07T09:17:34.822Z,5.07
2022-10-07T09:20:07.753Z,4.45
2022-10-07T09:22:38.446Z,3.83
2022-10-07T09:25:20.240Z,3.13
2022-10-07T09:27:49.067Z,2.75
2022-10-07T09:30:17.357Z,2.00
2022-10-07T09:32:48.842Z,2.60
2022-10-07T09:35:18.363Z,3.03
2022-10-07T09:38:01.693Z,2.80
2022-10-07T09:40:35.373Z,2.90
2022-10-07T09:43:09.864Z,2.95
2022-10-07T09:45:37.738Z,3.42
2022-10-07T09:48:17.975Z,3.88
2022-10-07T09:50:46.723Z,4.57
2022-10-07T09:53:20.119Z,6.55
2022-10-07T09:55:48.723Z,5.10
2022-10-07T09:58:21.695Z,4.10
2022-10-07T10:00:51.175Z,3.85
2022-10-07T10:03:20.716Z,4.00
2022-10-07T10:05:58.119Z,3.47
2022-10-07T10:08:29.148Z,4.38
2022-10-07T10:10:58.648Z,4.00
2022-10-07T10:13:29.437Z,3.88
2022-10-07T10:15:57.899Z,3.20
2022-10-07T10:18:38.724Z,3.08
2022-10-07T10:21:27.396Z,2.60
2022-10-07T10:23:57.944Z,2.63
2022-10-07T10:26:56.556Z,2.47
2022-10-07T10:29:39.122Z,2.13
2022-10-07T10:32:45.518Z,2.13
2022-10-07T10:35:21.119Z,2.20
2022-10-07T10:38:11.007Z,2.00
2022-10-07T10:40:42.982Z,1.83
2022-10-07T10:43:22.119Z,1.60
2022-10-07T10:46:08.530Z,1.90
2022-10-07T10:48:42.320Z,1.83
2022-10-07T10:51:28.342Z,3.40
2022-10-07T10:54:11.919Z,3.00
2022-10-07T10:56:45.799Z,2.00
2022-10-07T10:59:29.835Z,1.85
2022-10-07T11:02:16.965Z,2.10
2022-10-07T11:04:50.199Z,1.80
2022-10-07T11:07:24.916Z,1.63
2022-10-07T11:09:57.144Z,1.43
2022-10-07T11:12:28.084Z,2.10
2022-10-07T11:15:02.224Z,1.92
2022-10-07T11:17:32.594Z,1.90
2022-10-07T11:20:15.495Z,1.35
2022-10-07T11:22:50.747Z,1.37
2022-10-07T11:25:26.134Z,1.20
2022-10-07T11:27:57.008Z,1.70
2022-10-07T11:30:27.244Z,1.65
2022-10-07T11:33:01.780Z,2.10
2022-10-07T11:35:32.759Z,2.17
2022-10-07T11:38:14.590Z,1.90
2022-10-07T11:40:46.587Z,1.60
2022-10-07T11:43:20.789Z,1.40
2022-10-07T11:45:52.246Z,1.80
2022-10-07T11:48:23.656Z,2.33
2022-10-07T11:50:56.295Z,2.08
2022-10-07T11:53:28.686Z,2.00
2022-10-07T11:56:03.249Z,1.70
2022-10-07T11:58:36.636Z,2.00
2022-10-07T12:01:46.109Z,2.00
2022-10-07T12:04:24.857Z,2.42
2022-10-07T12:07:30.415Z,2.72
2022-10-07T12:10:20.304Z,2.92
2022-10-07T12:12:49.958Z,2.60
2022-10-07T12:15:33.349Z,3.77
2022-10-07T12:18:30.734Z,2.95
2022-10-07T12:21:08.305Z,3.00
2022-10-07T12:23:41.616Z,2.63
2022-10-07T12:26:51.144Z,2.20
2022-10-07T12:29:32.797Z,2.80
2022-10-07T12:32:00.745Z,2.35
2022-10-07T12:34:35.316Z,3.42
2022-10-07T12:37:47.179Z,4.55
2022-10-07T12:40:21.985Z,3.67
2022-10-07T12:42:57.089Z,4.77
2022-10-07T12:45:29.053Z,4.07
2022-10-07T12:48:00.679Z,4.97
2022-10-07T12:50:32.977Z,4.78
2022-10-07T12:53:04.013Z,4.60
2022-10-07T12:55:37.211Z,3.60
2022-10-07T12:58:30.929Z,2.83
2022-10-07T13:01:16.124Z,2.63
2022-10-07T13:04:07.206Z,2.13
2022-10-07T13:07:03.688Z,2.30
2022-10-07T13:10:10.912Z,3.27
2022-10-07T13:12:44.015Z,2.85
2022-10-07T13:15:27.846Z,3.50
2022-10-07T13:18:07.300Z,3.25
2022-10-07T13:20:55.107Z,2.88
2022-10-07T13:23:27.288Z,3.23
2022-10-07T13:25:58.645Z,3.47
2022-10-07T13:28:37.647Z,2.70
2022-10-07T13:31:18.995Z,2.10
2022-10-07T13:33:48.573Z,2.45
2022-10-07T13:36:20.236Z,2.10
2022-10-07T13:38:50.483Z,2.20
2022-10-07T13:41:28.278Z,2.97
2022-10-07T13:44:00.932Z,2.03
2022-10-07T13:46:31.558Z,2.40
2022-10-07T13:49:04.932Z,2.17
2022-10-07T13:51:36.797Z,2.13
2022-10-07T13:54:08.684Z,4.43
2022-10-07T13:56:42.442Z,4.38
2022-10-07T13:59:15.972Z,3.40
2022-10-07T14:01:44.657Z,3.27
2022-10-07T14:04:25.413Z,4.38
2022-10-07T14:06:57.909Z,3.60
2022-10-07T14:09:37.795Z,3.30
2022-10-07T14:12:09.731Z,3.20
2022-10-07T14:14:40.358Z,2.83
2022-10-07T14:17:18.775Z,2.63
2022-10-07T14:19:53.246Z,2.90
2022-10-07T14:22:32.342Z,2.70
2022-10-07T14:25:08.083Z,3.03
2022-10-07T14:27:53.046Z,1.70
2022-10-07T14:30:49.902Z,2.65
2022-10-07T14:33:42.769Z,3.00
2022-10-07T14:36:15.133Z,3.15
2022-10-07T14:38:44.626Z,3.40
2022-10-07T14:41:14.501Z,2.97
2022-10-07T14:43:45.253Z,2.47
2022-10-07T14:46:19.179Z,2.30
2022-10-07T14:48:48.225Z,2.72
2022-10-07T14:51:20.344Z,2.40
2022-10-07T14:53:50.682Z,2.00
2022-10-07T14:56:24.632Z,2.05
2022-10-07T14:58:52.461Z,3.50
2022-10-07T15:01:20.826Z,2.72
2022-10-07T15:03:50.246Z,4.28
2022-10-07T15:06:20.369Z,3.80
2022-10-07T15:08:49.735Z,3.90
2022-10-07T15:11:19.282Z,2.65
2022-10-07T15:13:48.444Z,2.83
2022-10-07T15:16:19.107Z,2.47
2022-10-07T15:18:52.198Z,1.83
2022-10-07T15:21:22.945Z,1.92
2022-10-07T15:23:52.129Z,2.15
2022-10-07T15:26:23.681Z,1.80
2022-10-07T15:28:55.447Z,2.10
2022-10-07T15:31:24.958Z,2.03
2022-10-07T15:33:56.965Z,1.83
2022-10-07T15:36:28.756Z,2.70
2022-10-07T15:38:57.302Z,2.15
2022-10-07T15:41:34.105Z,2.08
2022-10-07T15:44:04.695Z,1.50
2022-10-07T15:46:34.380Z,1.70
2022-10-07T15:49:03.815Z,1.70
2022-10-07T15:51:36.426Z,1.67
2022-10-07T15:54:06.100Z,1.80
2022-10-07T15:56:34.313Z,1.40
2022-10-07T15:59:02.602Z,2.00
2022-10-07T16:01:32.929Z,1.60
2022-10-07T16:04:03.015Z,1.90
2022-10-07T16:06:34.384Z,1.95
2022-10-07T16:09:03.517Z,2.00
2022-10-07T16:11:34.323Z,2.78
2022-10-07T16:14:03.537Z,2.42
2022-10-07T16:16:32.969Z,2.22
2022-10-07T16:19:02.165Z,2.20
2022-10-07T16:21:34.281Z,2.00
2022-10-07T16:24:05.600Z,2.60
2022-10-07T16:26:36.008Z,2.42
2022-10-07T16:29:22.829Z,3.90
2022-10-07T16:31:57.153Z,4.82
2022-10-07T16:34:28.016Z,4.53
2022-10-07T16:36:58.915Z,5.00
2022-10-07T16:39:27.357Z,4.90
2022-10-07T16:41:56.599Z,5.03
2022-10-07T16:44:25.829Z,4.63
2022-10-07T16:46:57.249Z,3.73
2022-10-07T16:49:27.620Z,3.92
2022-10-07T16:51:58.006Z,4.50
2022-10-07T16:54:28.449Z,4.78
2022-10-07T16:56:57.756Z,4.32
2022-10-07T16:59:26.597Z,5.40
2022-10-07T17:01:57.019Z,5.65
2022-10-07T17:04:25.770Z,6.75
2022-10-07T17:06:54.004Z,12.60
2022-10-07T17:09:24.984Z,19.40
2022-10-07T17:11:52.925Z,20.60
2022-10-07T17:14:22.839Z,22.13
2022-10-07T17:16:52.957Z,20.63
2022-10-07T17:19:22.376Z,21.73
2022-10-07T17:21:51.794Z,20.60
2022-10-07T17:24:24.376Z,21.27
2022-10-07T17:26:54.137Z,23.35
2022-10-07T17:29:26.035Z,23.95
2022-10-07T17:31:54.391Z,22.40
2022-10-07T17:34:24.139Z,21.92
2022-10-07T17:36:53.015Z,23.50
2022-10-07T17:39:21.240Z,24.38
2022-10-07T17:41:50.356Z,21.63
2022-10-07T17:44:19.121Z,22.48
2022-10-07T17:46:49.038Z,24.45
2022-10-07T17:49:19.739Z,20.50
2022-10-07T17:51:47.783Z,20.02
2022-10-07T17:54:15.979Z,20.70
2022-10-07T17:56:47.726Z,19.70
2022-10-07T17:59:17.519Z,19.23
2022-10-07T18:01:46.176Z,17.37
2022-10-07T18:04:19.919Z,18.27
2022-10-07T18:06:52.173Z,17.70
2022-10-07T18:09:22.077Z,16.67
2022-10-07T18:12:07.449Z,18.08
2022-10-07T18:14:54.587Z,19.53
2022-10-07T18:17:22.967Z,19.92
2022-10-07T18:22:39.636Z,17.70
2022-10-07T18:25:12.170Z,17.85
2022-10-07T18:27:40.724Z,15.90
2022-10-07T18:30:11.495Z,16.60
2022-10-07T18:32:39.403Z,18.00
2022-10-07T18:35:10.270Z,18.35
2022-10-07T18:37:38.279Z,17.08
2022-10-07T18:40:07.228Z,17.70
2022-10-07T18:42:37.906Z,21.17
2022-10-07T18:45:06.497Z,23.48
2022-10-07T18:47:36.999Z,23.38
2022-10-07T18:50:07.807Z,23.40
2022-10-07T18:52:35.703Z,22.30
2022-10-07T18:55:03.568Z,17.60
2022-10-07T18:57:31.794Z,17.02
2022-10-07T18:59:59.934Z,16.48
2022-10-07T19:02:27.960Z,17.13
2022-10-07T19:04:57.994Z,15.27
2022-10-07T19:07:26.670Z,15.52
2022-10-07T19:09:54.392Z,14.85
2022-10-07T19:12:54.064Z,18.92
2022-10-07T19:15:21.646Z,21.40
2022-10-07T19:17:49.820Z,22.50
2022-10-07T19:20:19.256Z,20.55
2022-10-07T19:22:47.456Z,21.08
2022-10-07T19:25:32.553Z,20.50
2022-10-07T19:28:00.552Z,21.55
2022-10-07T19:30:28.852Z,18.70
2022-10-07T19:32:58.081Z,18.15
2022-10-07T19:35:30.041Z,17.27
2022-10-07T19:37:58.259Z,14.73
2022-10-07T19:40:26.284Z,16.20
2022-10-07T19:42:54.232Z,16.83
2022-10-07T19:45:23.297Z,19.02
2022-10-07T19:47:51.487Z,20.05
2022-10-07T19:50:19.429Z,22.67
2022-10-07T19:52:49.001Z,22.77
2022-10-07T19:55:17.145Z,22.80
2022-10-07T19:57:45.461Z,21.48
2022-10-07T20:00:14.744Z,21.13
2022-10-07T20:02:42.707Z,18.77
2022-10-07T20:05:11.191Z,13.80
2022-10-07T20:07:39.202Z,12.40
2022-10-07T20:10:09.392Z,11.57
2022-10-07T20:12:40.652Z,11.70
2022-10-07T20:15:10.053Z,10.40
2022-10-07T20:17:39.701Z,10.98
2022-10-07T20:20:09.032Z,10.70
2022-10-07T20:22:36.984Z,10.70
2022-10-07T20:25:07.209Z,11.52
2022-10-07T20:27:36.485Z,12.38
2022-10-07T20:30:13.909Z,14.27
2022-10-07T20:32:46.570Z,15.00
2022-10-07T20:35:14.691Z,15.88
2022-10-07T20:37:42.932Z,15.50
2022-10-07T20:40:29.424Z,13.77
2022-10-07T20:43:00.915Z,12.63
2022-10-07T20:45:28.753Z,10.23
2022-10-07T20:47:59.574Z,9.90
2022-10-07T20:50:28.379Z,13.52
2022-10-07T20:52:56.045Z,19.20
2022-10-07T20:55:27.112Z,17.67
2022-10-07T20:57:55.019Z,14.17
2022-10-07T21:00:28.096Z,12.15
2022-10-07T21:02:56.153Z,12.48
2022-10-07T21:05:24.563Z,12.93
2022-10-07T21:07:54.931Z,11.93
2022-10-07T21:10:23.836Z,11.27
2022-10-07T21:12:52.136Z,10.05
2022-10-07T21:15:23.399Z,9.15
2022-10-07T21:17:54.084Z,9.32
2022-10-07T21:20:22.323Z,11.18
2022-10-07T21:22:52.160Z,11.20
2022-10-07T21:25:20.590Z,10.70
2022-10-07T21:27:48.652Z,11.00
2022-10-07T21:30:16.595Z,12.00
2022-10-07T21:32:45.378Z,12.55
2022-10-07T21:35:15.242Z,12.57
2022-10-07T21:37:43.514Z,11.35
2022-10-07T21:40:11.925Z,12.52
2022-10-07T21:42:40.057Z,11.77
2022-10-07T21:45:09.233Z,11.15
2022-10-07T21:47:38.684Z,11.10
2022-10-07T21:50:07.918Z,10.52
2022-10-07T21:52:37.571Z,9.68
2022-10-07T21:55:08.091Z,8.75
2022-10-07T21:57:35.920Z,8.07
2022-10-07T22:00:05.243Z,7.53
2022-10-07T22:02:33.024Z,8.55
2022-10-07T22:05:00.657Z,9.77
2022-10-07T22:07:45.958Z,11.90
2022-10-07T22:10:15.905Z,16.08
2022-10-07T22:12:45.236Z,17.70
2022-10-07T22:15:13.779Z,14.93
2022-10-07T22:17:41.923Z,14.45
2022-10-07T22:20:10.704Z,18.48
2022-10-07T22:22:38.825Z,15.30
2022-10-07T22:25:08.350Z,12.63
2022-10-07T22:27:38.779Z,13.00
2022-10-07T22:30:09.718Z,12.07
2022-10-07T22:32:38.144Z,10.65
2022-10-07T22:35:38.819Z,14.45
2022-10-07T22:38:07.178Z,14.90
2022-10-07T22:40:38.663Z,14.23
2022-10-07T22:43:08.830Z,14.60
2022-10-07T22:45:37.307Z,13.60
2022-10-07T22:48:05.845Z,14.40
2022-10-07T22:50:34.551Z,13.03
2022-10-07T22:53:03.120Z,13.05
2022-10-07T22:55:31.733Z,10.93
2022-10-07T22:58:02.466Z,9.13
2022-10-07T23:00:34.561Z,8.50
2022-10-07T23:03:03.903Z,8.20
2022-10-07T23:05:37.307Z,8.75
2022-10-07T23:08:06.550Z,8.63
2022-10-07T23:10:34.791Z,8.52
2022-10-07T23:13:03.961Z,7.00
2022-10-07T23:15:33.213Z,7.37
2022-10-07T23:18:01.827Z,7.47
2022-10-07T23:20:29.772Z,7.70
2022-10-07T23:22:58.474Z,6.93
2022-10-07T23:25:29.111Z,6.93
2022-10-07T23:27:57.183Z,7.23
2022-10-07T23:30:25.371Z,6.75
2022-10-07T23:32:56.589Z,6.32
2022-10-07T23:35:24.640Z,5.97
2022-10-07T23:37:56.300Z,5.32
2022-10-07T23:40:24.192Z,6.17
2022-10-07T23:42:53.090Z,5.07
2022-10-07T23:45:21.190Z,5.30
2022-10-07T23:47:50.656Z,5.18
2022-10-07T23:50:22.107Z,4.95
2022-10-07T23:52:50.566Z,5.83
2022-10-07T23:55:20.093Z,5.70
2022-10-07T23:57:48.193Z,6.03
